Time;durP1;ratioP1;P1;durP2;ratioP2;P2;SDS_P1;SDS_P2;PMS_P1;PMS_P2;Temp;Humidity;BMP_temperature;BMP_pressure;BME280_temperature;BME280_humidity;BME280_pressure;Samples;Min_cycle;Max_cycle;Signal;HPM_P1;HPM_P2
2021/11/29 00:01:33;;;;;;;3.43;1.30;;;16.60;51.30;;;;;;10393193;28;20206;-65
2021/11/29 00:06:55;;;;;;;1.73;1.23;;;16.60;51.40;;;;;;10389496;28;20225;-66
2021/11/29 00:12:18;;;;;;;1.03;1.00;;;16.60;51.10;;;;;;10407512;28;20206;-65
2021/11/29 00:17:41;;;;;;;3.03;1.40;;;16.70;51.10;;;;;;10415782;28;20217;-66
2021/11/29 00:23:03;;;;;;;1.60;1.10;;;16.60;51.30;;;;;;10415835;28;20228;-66
2021/11/29 00:28:25;;;;;;;1.77;1.20;;;16.60;51.30;;;;;;10414228;28;20229;-66
2021/11/29 00:33:49;;;;;;;1.93;1.20;;;16.70;51.10;;;;;;10416971;28;20193;-66
2021/11/29 00:39:11;;;;;;;1.90;1.10;;;16.70;51.00;;;;;;10456170;28;20221;-65
2021/11/29 00:44:33;;;;;;;1.50;1.13;;;16.70;51.00;;;;;;10446073;28;20221;-65
2021/11/29 00:49:57;;;;;;;0.70;0.70;;;16.70;51.00;;;;;;10452257;28;20196;-65
2021/11/29 00:55:20;;;;;;;0.80;0.60;;;16.70;51.10;;;;;;10455290;28;20212;-66
2021/11/29 01:00:42;;;;;;;1.03;0.93;;;16.70;51.10;;;;;;10414404;28;20198;-66
2021/11/29 01:06:06;;;;;;;1.77;0.90;;;16.70;51.10;;;;;;10414592;28;20217;-65
2021/11/29 01:11:28;;;;;;;1.30;0.87;;;16.60;51.30;;;;;;10413039;28;20208;-64
2021/11/29 01:16:50;;;;;;;1.00;0.90;;;16.60;51.40;;;;;;10414591;28;20221;-65
2021/11/29 01:22:15;;;;;;;2.10;0.80;;;16.60;51.10;;;;;;10412993;28;20206;-66
2021/11/29 01:27:37;;;;;;;1.00;0.80;;;16.60;51.00;;;;;;10413577;28;20226;-66
2021/11/29 01:32:59;;;;;;;1.13;0.77;;;16.60;51.00;;;;;;10414400;28;20209;-65
2021/11/29 01:38:23;;;;;;;1.00;0.80;;;16.60;51.20;;;;;;10415403;28;20213;-66
2021/11/29 01:43:46;;;;;;;1.00;0.87;;;16.60;51.00;;;;;;10413173;28;20224;-65
2021/11/29 01:49:08;;;;;;;0.80;0.80;;;16.60;50.80;;;;;;10412655;28;20218;-65
2021/11/29 01:54:32;;;;;;;1.10;0.70;;;16.60;50.90;;;;;;10412084;28;20583;-66
2021/11/29 01:59:54;;;;;;;0.80;0.80;;;16.60;50.90;;;;;;10439863;28;20284;-65
2021/11/29 02:05:16;;;;;;;0.97;0.80;;;16.60;51.10;;;;;;10452474;28;20220;-65
2021/11/29 02:10:40;;;;;;;1.80;0.90;;;16.60;51.00;;;;;;10452147;28;20196;-65
2021/11/29 02:16:05;;;;;;;1.70;1.10;;;16.60;51.10;;;;;;10452156;28;20677;-65
2021/11/29 02:21:30;;;;;;;0.93;0.93;;;16.60;51.20;;;;;;10425582;28;20193;-65
2021/11/29 02:26:52;;;;;;;1.30;1.20;;;16.60;51.20;;;;;;10410171;28;20765;-65
2021/11/29 02:32:15;;;;;;;1.10;0.90;;;16.60;51.00;;;;;;10411582;28;20201;-65
2021/11/29 02:37:38;;;;;;;2.07;1.07;;;16.60;50.90;;;;;;10410373;28;20217;-65
2021/11/29 02:43:01;;;;;;;1.30;1.20;;;16.60;51.10;;;;;;10410005;28;20193;-65
2021/11/29 02:48:38;;;;;;;1.33;1.23;;;16.60;51.30;;;;;;10409735;28;20213;-65
2021/11/29 02:54:05;;;;;;;1.43;1.27;;;16.60;51.30;;;;;;10410715;28;20576;-66
2021/11/29 02:59:30;;;;;;;2.10;1.80;;;16.60;51.20;;;;;;10410500;28;20686;-65
2021/11/29 03:04:52;;;;;;;2.13;1.63;;;16.60;51.20;;;;;;10417675;28;20221;-65
2021/11/29 03:10:15;;;;;;;1.90;1.63;;;16.60;51.30;;;;;;10446789;28;20563;-65
2021/11/29 03:15:37;;;;;;;1.97;1.23;;;16.60;51.40;;;;;;10449914;28;20701;-65
2021/11/29 03:20:59;;;;;;;2.80;1.43;;;16.60;51.20;;;;;;10449556;28;20200;-66
2021/11/29 03:26:25;;;;;;;1.77;1.67;;;16.60;51.00;;;;;;10450674;28;20216;-65
2021/11/29 03:31:51;;;;;;;1.90;1.70;;;16.60;51.10;;;;;;10448928;28;20223;-66
2021/11/29 03:37:13;;;;;;;1.90;1.67;;;16.60;51.30;;;;;;10449761;28;20213;-65
2021/11/29 03:42:36;;;;;;;2.13;1.93;;;16.60;51.40;;;;;;10442123;28;20206;-65
2021/11/29 03:47:59;;;;;;;1.63;1.53;;;16.60;51.20;;;;;;10416547;28;20216;-65
2021/11/29 03:53:21;;;;;;;2.03;1.83;;;16.60;51.10;;;;;;10449270;28;20205;-65
2021/11/29 03:58:44;;;;;;;2.00;1.90;;;16.60;51.30;;;;;;10449326;28;20212;-65
2021/11/29 04:04:06;;;;;;;1.90;1.80;;;16.60;51.40;;;;;;10449398;28;20228;-65
2021/11/29 04:09:29;;;;;;;2.13;1.80;;;16.60;51.30;;;;;;10449410;28;20193;-65
2021/11/29 04:14:52;;;;;;;1.70;1.60;;;16.60;51.00;;;;;;10449137;28;20674;-66
2021/11/29 04:20:15;;;;;;;1.83;1.73;;;16.60;51.00;;;;;;10417469;28;20544;-65
2021/11/29 04:25:44;;;;;;;1.70;1.47;;;16.60;51.10;;;;;;10408390;28;20699;-65
2021/11/29 04:31:08;;;;;;;2.20;2.00;;;16.60;51.20;;;;;;10407526;28;20205;-66
2021/11/29 04:36:30;;;;;;;1.93;1.83;;;16.60;51.10;;;;;;10408381;28;20217;-65
2021/11/29 04:41:52;;;;;;;2.00;1.50;;;16.70;50.90;;;;;;10408132;28;20335;-65
2021/11/29 04:47:16;;;;;;;1.40;1.30;;;16.70;50.90;;;;;;10415181;28;20229;-65
2021/11/29 04:52:38;;;;;;;1.50;1.40;;;16.80;51.30;;;;;;10413533;28;20562;-66
2021/11/29 04:58:00;;;;;;;1.50;1.40;;;16.80;51.20;;;;;;10413551;28;20220;-66
2021/11/29 05:03:24;;;;;;;1.40;1.20;;;16.90;51.10;;;;;;10414591;28;20225;-66
2021/11/29 05:08:46;;;;;;;1.50;1.40;;;17.00;51.00;;;;;;10431364;28;20221;-65
2021/11/29 05:14:09;;;;;;;1.73;1.63;;;17.00;50.20;;;;;;10424488;28;20209;-66
2021/11/29 05:19:32;;;;;;;1.97;1.87;;;17.00;49.80;;;;;;10414519;28;20661;-66
2021/11/29 05:24:55;;;;;;;1.80;1.70;;;17.00;49.80;;;;;;10417345;28;20222;-65
2021/11/29 05:30:17;;;;;;;2.83;2.30;;;17.10;49.80;;;;;;10412972;28;20186;-65
2021/11/29 05:35:40;;;;;;;2.10;1.90;;;17.10;49.70;;;;;;10413617;28;20217;-65
2021/11/29 05:41:03;;;;;;;2.07;1.87;;;17.00;49.70;;;;;;10429954;28;20201;-66
2021/11/29 05:46:25;;;;;;;2.53;2.33;;;17.10;49.70;;;;;;10455030;28;20224;-65
2021/11/29 05:51:48;;;;;;;2.83;2.60;;;17.10;49.70;;;;;;10454669;28;20193;-66
2021/11/29 05:57:12;;;;;;;3.90;3.37;;;17.10;49.60;;;;;;10453923;28;20213;-65
2021/11/29 06:02:35;;;;;;;4.33;3.50;;;17.10;49.50;;;;;;10452357;28;20193;-65
2021/11/29 06:07:58;;;;;;;3.57;3.27;;;17.10;49.40;;;;;;10452224;28;20228;-66
2021/11/29 06:13:20;;;;;;;4.30;3.90;;;17.10;49.30;;;;;;10411114;28;20205;-65
2021/11/29 06:18:42;;;;;;;4.63;3.97;;;17.10;49.20;;;;;;10437325;28;20214;-65
2021/11/29 06:24:06;;;;;;;4.40;3.93;;;17.20;49.50;;;;;;10444909;28;20212;-65
2021/11/29 06:29:28;;;;;;;3.20;2.50;;;17.20;49.30;;;;;;10445535;28;20208;-66
2021/11/29 06:34:50;;;;;;;4.37;3.97;;;17.20;50.60;;;;;;10450461;28;20254;-65
2021/11/29 06:40:15;;;;;;;5.87;4.90;;;17.20;49.40;;;;;;10444503;28;20666;-65
2021/11/29 06:45:37;;;;;;;5.20;4.70;;;17.20;49.10;;;;;;10445945;28;20231;-64
2021/11/29 06:51:00;;;;;;;4.30;3.90;;;17.20;49.20;;;;;;10449468;28;20197;-64
2021/11/29 06:56:23;;;;;;;4.80;3.70;;;17.10;49.50;;;;;;10449041;28;20276;-64
2021/11/29 07:01:46;;;;;;;5.87;4.33;;;17.00;49.80;;;;;;10446070;28;20197;-64
2021/11/29 07:07:08;;;;;;;4.73;4.03;;;16.90;50.10;;;;;;10441309;28;20308;-65
2021/11/29 07:12:31;;;;;;;4.77;4.03;;;16.90;50.00;;;;;;10445949;28;20208;-68
2021/11/29 07:17:54;;;;;;;4.37;3.97;;;16.90;50.10;;;;;;10446033;28;20221;-64
2021/11/29 07:23:16;;;;;;;4.07;3.67;;;16.80;50.10;;;;;;10439162;28;20197;-65
2021/11/29 07:28:40;;;;;;;4.27;3.87;;;16.80;50.20;;;;;;10446897;28;20235;-65
2021/11/29 07:34:02;;;;;;;4.40;4.00;;;16.80;50.40;;;;;;10446707;28;20197;-65
2021/11/29 07:39:25;;;;;;;4.90;4.27;;;16.70;50.70;;;;;;10448445;28;20262;-65
2021/11/29 07:44:48;;;;;;;4.53;4.13;;;16.70;50.90;;;;;;10439997;28;20221;-64
2021/11/29 07:50:14;;;;;;;5.53;4.60;;;16.70;50.80;;;;;;10449272;28;20212;-65
2021/11/29 07:55:36;;;;;;;4.43;4.00;;;16.70;50.60;;;;;;10449000;28;20701;-65
2021/11/29 08:01:00;;;;;;;4.03;3.47;;;16.80;50.20;;;;;;10447621;28;20209;-66
2021/11/29 08:06:22;;;;;;;4.50;3.90;;;16.90;50.00;;;;;;10448208;28;20234;-65
2021/11/29 08:11:44;;;;;;;4.90;4.40;;;17.00;49.70;;;;;;10468509;28;20215;-65
2021/11/29 08:17:08;;;;;;;4.97;4.00;;;17.00;49.40;;;;;;10425866;28;20217;-65
2021/11/29 08:22:30;;;;;;;4.27;3.87;;;17.00;49.50;;;;;;10441420;28;20205;-65
2021/11/29 08:27:53;;;;;;;5.50;3.67;;;17.00;49.60;;;;;;10456100;28;20350;-65
2021/11/29 08:33:16;;;;;;;3.63;3.27;;;17.00;49.80;;;;;;10467636;28;20208;-65
2021/11/29 08:38:39;;;;;;;4.10;3.40;;;16.90;50.40;;;;;;10495188;28;20216;-65
2021/11/29 08:44:03;;;;;;;3.97;3.57;;;16.80;50.50;;;;;;10455447;28;20208;-65
2021/11/29 08:49:27;;;;;;;4.87;3.50;;;16.80;50.80;;;;;;10450650;28;20276;-65
2021/11/29 08:54:50;;;;;;;3.20;2.90;;;16.80;51.10;;;;;;10454079;28;20236;-65
2021/11/29 09:00:16;;;;;;;3.93;3.53;;;16.80;51.40;;;;;;10455168;28;20289;-65
2021/11/29 09:05:41;;;;;;;3.27;2.97;;;16.80;51.60;;;;;;10438718;28;20217;-65
2021/11/29 09:11:04;;;;;;;3.43;2.97;;;16.70;51.80;;;;;;10455028;28;20194;-64
2021/11/29 09:16:26;;;;;;;3.80;3.40;;;16.70;51.90;;;;;;10453770;28;20232;-65
2021/11/29 09:21:50;;;;;;;3.93;3.00;;;16.70;51.90;;;;;;10452836;28;20540;-65
2021/11/29 09:27:12;;;;;;;3.73;3.17;;;16.80;51.70;;;;;;10453376;28;20229;-65
2021/11/29 09:32:37;;;;;;;3.83;3.43;;;16.80;51.50;;;;;;10452509;28;20204;-65
2021/11/29 09:38:01;;;;;;;3.13;2.73;;;16.80;51.10;;;;;;10469356;28;20220;-65
2021/11/29 09:43:23;;;;;;;3.30;2.90;;;16.90;51.30;;;;;;10439076;28;20282;-65
2021/11/29 09:48:45;;;;;;;3.13;2.83;;;16.80;51.30;;;;;;10456703;28;20224;-65
2021/11/29 09:54:09;;;;;;;2.97;2.67;;;16.80;51.50;;;;;;10459554;28;20574;-65
2021/11/29 09:59:31;;;;;;;2.87;2.67;;;16.80;51.70;;;;;;10477995;28;20583;-64
2021/11/29 10:04:53;;;;;;;3.67;3.30;;;16.80;51.90;;;;;;10458679;28;20682;-65
2021/11/29 10:10:19;;;;;;;3.77;3.03;;;16.80;52.20;;;;;;10470554;28;20192;-65
2021/11/29 10:15:42;;;;;;;3.37;3.07;;;16.80;52.40;;;;;;10441494;28;20671;-65
2021/11/29 10:21:07;;;;;;;3.40;2.97;;;16.80;52.60;;;;;;10435462;28;20197;-65
2021/11/29 10:26:33;;;;;;;3.43;2.97;;;16.70;52.60;;;;;;10467874;28;20560;-65
2021/11/29 10:31:57;;;;;;;3.27;2.97;;;16.80;52.60;;;;;;10467324;28;20259;-64
2021/11/29 10:37:28;;;;;;;3.93;3.53;;;16.70;52.10;;;;;;10448563;28;20221;-65
2021/11/29 10:42:52;;;;;;;4.43;3.60;;;16.80;51.80;;;;;;10446829;28;20209;-65
2021/11/29 10:48:24;;;;;;;4.80;4.13;;;16.80;51.90;;;;;;10436324;28;20227;-64
2021/11/29 10:53:49;;;;;;;4.70;3.97;;;16.90;51.50;;;;;;10440757;28;20574;-65
2021/11/29 10:59:16;;;;;;;4.03;3.60;;;16.90;51.50;;;;;;10450525;28;20587;-64
2021/11/29 11:04:41;;;;;;;4.43;3.33;;;16.90;51.50;;;;;;10449613;28;20199;-65
2021/11/29 11:10:06;;;;;;;4.30;3.50;;;16.90;51.40;;;;;;10429653;28;20194;-67
2021/11/29 11:15:31;;;;;;;4.03;3.63;;;16.90;51.40;;;;;;10448122;28;20563;-65
2021/11/29 11:21:13;;;;;;;3.80;3.27;;;16.90;51.50;;;;;;10456542;28;20200;-64
2021/11/29 11:26:38;;;;;;;3.43;3.13;;;16.80;51.40;;;;;;10468102;28;20227;-63
2021/11/29 11:32:15;;;;;;;8.43;5.27;;;16.80;51.80;;;;;;10448730;28;20212;-64
2021/11/29 11:37:40;;;;;;;7.40;5.20;;;16.80;51.70;;;;;;10445996;28;20213;-64
2021/11/29 11:43:04;;;;;;;6.90;4.53;;;16.80;51.60;;;;;;10454614;28;20607;-66
2021/11/29 11:48:28;;;;;;;5.40;4.20;;;16.80;51.40;;;;;;10440619;28;20734;-66
2021/11/29 11:53:51;;;;;;;5.13;3.90;;;16.80;51.20;;;;;;10441872;28;20208;-64
2021/11/29 11:59:15;;;;;;;5.30;4.23;;;16.80;51.10;;;;;;10456973;28;20217;-65
2021/11/29 12:04:38;;;;;;;5.00;4.10;;;16.80;51.00;;;;;;10456359;28;20205;-65
2021/11/29 12:10:34;;;;;;;5.30;3.97;;;16.80;51.10;;;;;;10453446;28;20193;-66
2021/11/29 12:15:58;;;;;;;4.77;3.60;;;16.80;51.10;;;;;;10432251;28;20205;-66
2021/11/29 12:21:23;;;;;;;5.90;4.30;;;16.80;51.30;;;;;;10455785;28;20248;-65
2021/11/29 12:27:01;;;;;;;4.20;3.60;;;16.80;51.40;;;;;;10456326;28;20229;-66
2021/11/29 12:32:25;;;;;;;5.30;4.37;;;16.80;51.50;;;;;;10455689;28;20208;-66
2021/11/29 12:38:01;;;;;;;4.80;4.33;;;16.80;51.40;;;;;;10455971;28;20232;-65
2021/11/29 12:43:40;;;;;;;4.03;3.63;;;16.80;51.00;;;;;;10446967;28;20201;-65
2021/11/29 12:49:06;;;;;;;5.07;3.80;;;16.80;51.00;;;;;;10452177;28;20225;-65
2021/11/29 12:54:42;;;;;;;3.97;3.57;;;16.80;50.90;;;;;;10452826;28;20208;-65
2021/11/29 13:00:10;;;;;;;3.80;3.40;;;16.90;50.70;;;;;;10454021;28;20363;-65
2021/11/29 13:05:36;;;;;;;4.03;3.63;;;16.90;50.80;;;;;;10454912;28;20276;-64
2021/11/29 13:11:08;;;;;;;4.60;3.90;;;16.90;50.90;;;;;;10440394;28;20574;-66
2021/11/29 13:16:41;;;;;;;4.03;3.53;;;16.80;51.00;;;;;;10450038;28;20205;-66
2021/11/29 13:22:06;;;;;;;4.27;3.63;;;16.80;51.20;;;;;;10438354;28;20193;-65
2021/11/29 13:27:29;;;;;;;4.30;3.90;;;16.80;51.60;;;;;;10450172;28;20251;-65
2021/11/29 13:32:51;;;;;;;4.70;3.70;;;16.80;51.90;;;;;;10453037;28;20208;-66
2021/11/29 13:38:13;;;;;;;5.57;4.60;;;16.70;52.20;;;;;;10426697;28;21389;-66
2021/11/29 13:43:37;;;;;;;5.43;4.53;;;17.60;49.90;;;;;;10447884;28;20905;-66
2021/11/29 13:49:09;;;;;;;6.17;3.30;;;18.10;48.60;;;;;;10451367;28;20478;-66
2021/11/29 13:54:31;;;;;;;3.33;2.90;;;17.50;50.80;;;;;;10452433;28;20204;-66
2021/11/29 14:00:02;;;;;;;2.67;2.47;;;17.30;51.80;;;;;;10451691;28;20606;-66
2021/11/29 14:05:28;;;;;;;3.20;2.73;;;17.20;52.00;;;;;;10429765;28;20721;-66
2021/11/29 14:10:54;;;;;;;3.70;2.70;;;17.20;51.90;;;;;;10451730;28;20343;-66
2021/11/29 14:16:20;;;;;;;3.43;2.70;;;17.20;51.30;;;;;;10450796;28;20663;-66
2021/11/29 14:21:44;;;;;;;3.03;2.67;;;17.30;50.80;;;;;;10451053;28;20193;-65
2021/11/29 14:27:09;;;;;;;3.27;2.97;;;17.30;50.20;;;;;;10449149;28;20232;-65
2021/11/29 14:32:32;;;;;;;3.93;3.00;;;17.30;50.10;;;;;;10436750;28;20189;-65
2021/11/29 14:37:58;;;;;;;7.57;2.40;;;17.30;50.10;;;;;;10426631;28;20706;-65
2021/11/29 14:43:22;;;;;;;2.57;2.30;;;17.20;50.50;;;;;;10440778;28;20686;-66
2021/11/29 14:48:46;;;;;;;3.67;1.93;;;17.20;51.10;;;;;;10443384;28;20228;-66
2021/11/29 14:54:09;;;;;;;3.03;2.10;;;17.10;51.00;;;;;;10449513;28;20420;-66
2021/11/29 14:59:31;;;;;;;2.50;2.13;;;17.20;51.20;;;;;;10449548;28;20440;-66
2021/11/29 15:05:06;;;;;;;2.40;2.20;;;17.20;51.50;;;;;;10435134;28;20398;-65
2021/11/29 15:10:31;;;;;;;2.57;1.60;;;17.10;51.50;;;;;;10445799;28;20213;-65
2021/11/29 15:15:53;;;;;;;2.17;1.90;;;17.00;51.80;;;;;;10448952;28;20217;-64
2021/11/29 15:21:28;;;;;;;3.30;2.63;;;16.90;52.10;;;;;;10455740;28;20209;-63
2021/11/29 15:26:51;;;;;;;3.93;2.87;;;16.90;52.30;;;;;;10446852;28;20217;-64
2021/11/29 15:32:16;;;;;;;3.47;3.00;;;16.90;52.30;;;;;;10476952;28;20197;-64
2021/11/29 15:37:42;;;;;;;3.37;2.80;;;16.90;52.10;;;;;;10451915;28;20291;-64
2021/11/29 15:43:15;;;;;;;3.60;2.80;;;17.00;52.10;;;;;;10441022;28;20609;-64
2021/11/29 15:48:42;;;;;;;3.27;2.97;;;17.10;51.80;;;;;;10428489;28;20762;-64
2021/11/29 15:54:07;;;;;;;3.63;3.33;;;17.20;51.50;;;;;;10448855;28;20575;-64
2021/11/29 15:59:29;;;;;;;3.23;2.90;;;17.30;51.10;;;;;;10460008;28;20197;-64
2021/11/29 16:04:51;;;;;;;5.20;4.03;;;17.30;50.90;;;;;;10435786;28;20209;-64
2021/11/29 16:10:15;;;;;;;23.67;16.33;;;17.30;50.90;;;;;;10439676;28;20583;-64
2021/11/29 16:15:38;;;;;;;12.93;10.80;;;17.30;51.50;;;;;;10425639;28;20695;-64
2021/11/29 16:21:00;;;;;;;7.23;6.03;;;17.20;51.90;;;;;;10463352;28;20201;-63
2021/11/29 16:26:24;;;;;;;5.60;4.63;;;17.10;52.10;;;;;;10445605;28;20230;-64
2021/11/29 16:31:46;;;;;;;5.07;4.10;;;17.10;52.40;;;;;;10444565;28;20208;-64
2021/11/29 16:37:08;;;;;;;5.30;4.10;;;17.10;52.50;;;;;;10420347;28;20583;-64
2021/11/29 16:42:32;;;;;;;8.37;5.33;;;17.10;52.70;;;;;;10458663;28;20201;-64
2021/11/29 16:47:58;;;;;;;7.90;5.13;;;17.00;52.90;;;;;;10439637;28;20228;-64
2021/11/29 16:53:21;;;;;;;6.80;4.40;;;17.00;53.10;;;;;;10436788;28;20663;-64
2021/11/29 16:58:45;;;;;;;5.67;3.63;;;17.00;53.30;;;;;;10447074;28;20212;-64
2021/11/29 17:04:07;;;;;;;4.70;3.37;;;16.90;53.30;;;;;;10468338;28;20673;-65
2021/11/29 17:09:29;;;;;;;5.67;4.50;;;16.90;53.00;;;;;;10438567;28;20582;-63
2021/11/29 17:14:53;;;;;;;4.63;4.10;;;17.00;52.40;;;;;;10439005;28;20356;-65
2021/11/29 17:20:17;;;;;;;5.27;3.93;;;17.00;51.90;;;;;;10436128;28;20189;-66
2021/11/29 17:25:40;;;;;;;4.80;3.30;;;17.10;51.40;;;;;;10453222;28;20225;-66
2021/11/29 17:31:04;;;;;;;3.57;3.10;;;17.10;51.30;;;;;;10454882;28;20659;-67
2021/11/29 17:36:26;;;;;;;3.30;2.70;;;17.10;51.20;;;;;;10453930;28;20224;-66
2021/11/29 17:41:48;;;;;;;3.17;2.83;;;17.10;51.20;;;;;;10449754;28;20197;-69
2021/11/29 17:47:12;;;;;;;5.50;2.83;;;17.00;51.10;;;;;;10449273;28;20217;-66
2021/11/29 17:52:34;;;;;;;4.03;3.10;;;17.00;51.30;;;;;;10448309;28;20193;-66
2021/11/29 17:57:59;;;;;;;2.93;2.60;;;17.00;51.40;;;;;;10449669;28;20313;-65
2021/11/29 18:03:22;;;;;;;2.93;2.43;;;16.90;51.50;;;;;;10451123;28;20191;-70
2021/11/29 18:14:21;;;;;;;3.07;2.47;;;16.90;51.50;;;;;;10447834;28;20543;-66
2021/11/29 18:19:45;;;;;;;4.03;2.43;;;16.80;51.50;;;;;;10452444;28;20204;-67
2021/11/29 18:25:10;;;;;;;5.63;4.63;;;16.80;51.40;;;;;;10447714;28;20221;-68
2021/11/29 18:30:33;;;;;;;5.77;5.13;;;16.90;51.00;;;;;;10445828;28;20698;-69
2021/11/29 18:35:56;;;;;;;5.33;3.73;;;16.90;50.60;;;;;;10444985;28;20235;-67
2021/11/29 18:41:19;;;;;;;3.80;3.27;;;17.10;50.20;;;;;;10445801;28;20197;-66
2021/11/29 18:46:41;;;;;;;3.37;3.07;;;17.20;49.80;;;;;;10428229;28;20218;-64
2021/11/29 18:52:05;;;;;;;4.30;2.70;;;17.20;49.50;;;;;;10434725;28;20892;-65
2021/11/29 18:57:28;;;;;;;3.10;2.67;;;17.20;49.40;;;;;;10451052;28;20213;-64
2021/11/29 19:02:50;;;;;;;2.60;2.40;;;17.20;49.70;;;;;;10450705;28;20671;-65
2021/11/29 19:08:14;;;;;;;2.90;2.40;;;17.10;50.00;;;;;;10450918;28;20292;-65
2021/11/29 19:13:37;;;;;;;2.47;2.27;;;17.00;50.30;;;;;;10449299;28;20251;-65
2021/11/29 19:18:59;;;;;;;3.50;2.27;;;17.00;50.40;;;;;;10446939;28;20213;-65
2021/11/29 19:24:27;;;;;;;2.23;2.03;;;16.90;50.40;;;;;;10453295;28;20694;-65
2021/11/29 19:29:51;;;;;;;2.40;2.20;;;16.90;50.50;;;;;;10457972;28;20582;-65
2021/11/29 19:35:14;;;;;;;4.37;3.97;;;16.90;50.50;;;;;;10459934;28;20220;-65
2021/11/29 19:40:40;;;;;;;3.03;2.73;;;16.90;50.70;;;;;;10459277;28;20204;-65
2021/11/29 19:46:05;;;;;;;2.93;2.63;;;16.80;50.70;;;;;;10460305;28;20682;-65
2021/11/29 19:51:29;;;;;;;3.13;2.83;;;16.80;50.80;;;;;;10457036;28;20224;-65
2021/11/29 19:56:56;;;;;;;3.07;2.80;;;16.80;50.90;;;;;;10460238;28;20224;-65
2021/11/29 20:02:18;;;;;;;5.80;4.40;;;16.80;50.60;;;;;;10457401;28;20197;-65
2021/11/29 20:07:41;;;;;;;3.40;3.10;;;16.80;50.10;;;;;;10462671;28;20597;-65
2021/11/29 20:13:04;;;;;;;4.23;3.23;;;17.00;49.50;;;;;;10464207;28;20196;-65
2021/11/29 20:18:26;;;;;;;7.27;4.60;;;17.10;49.00;;;;;;10466541;28;20559;-65
2021/11/29 20:23:49;;;;;;;9.70;5.60;;;17.10;48.90;;;;;;10465241;28;20578;-65
2021/11/29 20:29:14;;;;;;;10.30;6.63;;;17.10;49.20;;;;;;10469839;28;20235;-65
2021/11/29 20:34:36;;;;;;;11.57;8.03;;;17.00;49.30;;;;;;10467296;28;20201;-65
2021/11/29 20:40:04;;;;;;;10.33;7.00;;;17.00;49.50;;;;;;10467599;28;20697;-65
2021/11/29 20:45:28;;;;;;;8.47;6.00;;;17.00;49.60;;;;;;10473321;28;20559;-65
2021/11/29 20:50:50;;;;;;;7.47;5.03;;;16.90;49.70;;;;;;10464984;28;20220;-65
2021/11/29 20:56:13;;;;;;;7.10;4.93;;;16.90;49.70;;;;;;10468605;28;20232;-65
2021/11/29 21:01:38;;;;;;;5.13;4.20;;;16.90;49.80;;;;;;10468060;28;20200;-65
2021/11/29 21:07:00;;;;;;;6.20;4.00;;;16.80;49.80;;;;;;10471926;28;20212;-65
2021/11/29 21:12:27;;;;;;;5.40;4.33;;;16.80;49.90;;;;;;10468928;28;20208;-65
2021/11/29 21:17:51;;;;;;;4.70;3.40;;;16.80;50.10;;;;;;10469408;28;20208;-65
2021/11/29 21:23:13;;;;;;;5.07;3.73;;;16.80;50.10;;;;;;10460112;28;20559;-65
2021/11/29 21:28:35;;;;;;;3.70;3.23;;;16.80;50.00;;;;;;10457001;28;20220;-65
2021/11/29 21:33:59;;;;;;;4.13;3.30;;;16.80;49.60;;;;;;10465904;28;20832;-65
2021/11/29 21:39:21;;;;;;;3.40;2.87;;;16.90;49.10;;;;;;10468624;28;20195;-65
2021/11/29 21:44:43;;;;;;;3.77;3.13;;;16.90;48.80;;;;;;10467065;28;20219;-65
2021/11/29 21:50:08;;;;;;;3.80;3.40;;;16.90;48.80;;;;;;10461320;28;20224;-65
2021/11/29 21:55:33;;;;;;;4.27;3.40;;;16.90;49.00;;;;;;10464664;28;20216;-65
2021/11/29 22:00:55;;;;;;;3.50;3.00;;;16.90;49.10;;;;;;10457272;28;20575;-65
2021/11/29 22:06:18;;;;;;;3.50;3.00;;;16.80;49.30;;;;;;10462130;28;20216;-65
2021/11/29 22:11:41;;;;;;;3.93;3.17;;;16.80;49.50;;;;;;10465346;28;20217;-65
2021/11/29 22:17:03;;;;;;;4.03;3.33;;;16.70;49.50;;;;;;10468241;28;20217;-65
2021/11/29 22:22:27;;;;;;;3.17;2.87;;;16.70;49.50;;;;;;10452093;28;20203;-65
2021/11/29 22:27:49;;;;;;;5.10;3.43;;;16.70;49.60;;;;;;10446841;28;20228;-65
2021/11/29 22:33:11;;;;;;;3.83;3.03;;;16.70;49.70;;;;;;10452409;28;20197;-65
2021/11/29 22:38:38;;;;;;;3.30;2.97;;;16.70;49.70;;;;;;10451115;28;20224;-66
2021/11/29 22:44:00;;;;;;;3.50;3.20;;;16.70;49.60;;;;;;10451915;28;20216;-65
2021/11/29 22:49:22;;;;;;;3.53;3.20;;;16.70;49.30;;;;;;10439095;28;20220;-65
2021/11/29 22:54:46;;;;;;;3.87;3.17;;;16.70;49.20;;;;;;10438204;28;20239;-66
2021/11/29 23:00:11;;;;;;;3.40;2.93;;;16.80;49.10;;;;;;10450423;28;20197;-65
2021/11/29 23:06:03;;;;;;;3.30;2.97;;;16.80;49.10;;;;;;10449893;28;20598;-65
2021/11/29 23:11:22;;;;;;;3.03;2.73;;;16.70;49.20;;;;;;10450644;28;21770;-65
2021/11/29 23:16:47;;;;;;;3.50;3.10;;;16.70;49.40;;;;;;10450807;28;20212;-65
2021/11/29 23:22:10;;;;;;;3.97;3.23;;;16.70;49.40;;;;;;10450273;28;20196;-65
2021/11/29 23:27:34;;;;;;;4.00;3.30;;;16.70;49.40;;;;;;10445350;28;20374;-65
2021/11/29 23:32:57;;;;;;;3.57;3.07;;;16.70;49.50;;;;;;10450248;28;20200;-65
2021/11/29 23:38:19;;;;;;;4.77;3.27;;;16.70;49.70;;;;;;10450018;28;20228;-65
2021/11/29 23:43:43;;;;;;;3.47;3.17;;;16.60;49.60;;;;;;10450518;28;20201;-64
2021/11/29 23:49:11;;;;;;;3.47;2.93;;;16.70;49.60;;;;;;10449666;28;20223;-65
2021/11/29 23:54:33;;;;;;;4.47;3.13;;;16.70;49.40;;;;;;10416299;28;20575;-65
2021/11/29 23:59:56;;;;;;;3.47;3.17;;;16.70;49.40;;;;;;10408014;28;20198;-65
